Time;durP1;ratioP1;P1;durP2;ratioP2;P2;SDS_P1;SDS_P2;PMS_P1;PMS_P2;Temp;Humidity;BMP_temperature;BMP_pressure;BME280_temperature;BME280_humidity;BME280_pressure;Samples;Min_cycle;Max_cycle;Signal;HPM_P1;HPM_P2
2022/01/15 00:01:46;;;;;;;0.68;0.35;;;7.90;53.50;;;;;;5015102;28;20041;-81
2022/01/15 00:04:12;;;;;;;0.60;0.20;;;7.90;53.60;;;;;;5016200;28;20118;-81
2022/01/15 00:06:38;;;;;;;1.20;0.40;;;7.90;53.60;;;;;;5016501;28;20030;-81
2022/01/15 00:09:05;;;;;;;0.90;0.35;;;7.90;53.80;;;;;;5016082;28;20270;-81
2022/01/15 00:11:31;;;;;;;1.65;0.38;;;7.80;53.80;;;;;;5030397;28;20573;-83
2022/01/15 00:14:10;;;;;;;0.90;0.20;;;7.90;54.00;;;;;;5014968;28;20033;-81
2022/01/15 00:16:47;;;;;;;0.20;0.20;;;7.90;54.10;;;;;;5007922;28;20040;-82
2022/01/15 00:19:16;;;;;;;0.63;0.20;;;7.80;54.30;;;;;;5016073;28;20059;-84
2022/01/15 00:21:42;;;;;;;0.43;0.20;;;7.80;54.50;;;;;;5017330;28;20079;-83
2022/01/15 00:24:08;;;;;;;0.52;0.20;;;7.80;54.70;;;;;;5019368;28;20025;-83
2022/01/15 00:26:34;;;;;;;0.40;0.20;;;7.80;54.80;;;;;;5012436;28;20038;-82
2022/01/15 00:29:00;;;;;;;0.50;0.20;;;7.80;54.80;;;;;;5020659;28;20126;-82
2022/01/15 00:31:27;;;;;;;2.85;0.52;;;7.70;54.80;;;;;;5013422;28;20167;-83
2022/01/15 00:33:53;;;;;;;0.30;0.22;;;7.80;54.80;;;;;;4999402;28;20041;-83
2022/01/15 00:36:19;;;;;;;0.75;0.30;;;7.70;54.70;;;;;;5013260;28;20038;-83
2022/01/15 00:38:45;;;;;;;0.68;0.30;;;7.70;54.70;;;;;;4998285;28;20056;-83
2022/01/15 00:41:12;;;;;;;1.17;0.52;;;7.70;55.20;;;;;;5016081;28;20535;-83
2022/01/15 00:43:38;;;;;;;0.45;0.20;;;7.80;55.20;;;;;;5015841;28;20030;-84
2022/01/15 00:46:04;;;;;;;1.05;0.40;;;7.70;55.10;;;;;;5015592;28;20427;-84
2022/01/15 00:48:30;;;;;;;1.13;0.35;;;7.70;55.00;;;;;;4998790;28;20061;-84
2022/01/15 00:50:56;;;;;;;1.25;0.52;;;7.70;55.00;;;;;;5013766;28;20036;-83
2022/01/15 00:53:22;;;;;;;0.40;0.30;;;7.70;54.80;;;;;;5015087;28;20057;-83
2022/01/15 00:55:48;;;;;;;0.90;0.50;;;7.70;54.70;;;;;;5014159;28;20035;-82
2022/01/15 00:58:14;;;;;;;0.85;0.40;;;7.70;54.60;;;;;;5015789;28;20034;-82
2022/01/15 01:00:40;;;;;;;0.60;0.60;;;7.70;54.40;;;;;;5014699;28;20030;-84
2022/01/15 01:03:06;;;;;;;0.43;0.30;;;7.60;54.30;;;;;;4997527;28;20546;-84
2022/01/15 01:05:32;;;;;;;0.75;0.32;;;7.60;54.20;;;;;;5015975;28;21517;-83
2022/01/15 01:07:58;;;;;;;2.25;0.40;;;7.60;54.10;;;;;;5015591;28;20033;-83
2022/01/15 01:23:36;;;;;;;1.13;0.40;;;7.60;54.00;;;;;;5018164;28;20030;-83
2022/01/15 01:26:11;;;;;;;0.55;0.50;;;7.50;54.00;;;;;;5018271;28;20022;-84
2022/01/15 01:28:42;;;;;;;1.08;0.30;;;7.60;54.10;;;;;;5029706;28;20033;-83
2022/01/15 01:31:16;;;;;;;0.60;0.35;;;7.60;54.60;;;;;;4990855;28;20038;-84
2022/01/15 01:33:47;;;;;;;1.58;0.50;;;7.60;54.70;;;;;;5016031;28;20116;-84
2022/01/15 01:41:14;;;;;;;0.85;0.32;;;7.60;54.30;;;;;;5015232;28;20087;-84
2022/01/15 01:43:46;;;;;;;2.55;0.40;;;7.60;54.20;;;;;;4997688;28;20448;-84
2022/01/15 01:48:38;;;;;;;1.90;0.60;;;7.60;54.20;;;;;;5015133;28;20400;-84
2022/01/15 01:51:08;;;;;;;0.50;0.50;;;7.50;54.20;;;;;;5014200;28;20041;-84
2022/01/15 01:53:35;;;;;;;1.30;0.40;;;7.50;54.30;;;;;;5030347;28;20455;-84
2022/01/15 01:56:03;;;;;;;2.63;0.90;;;7.60;54.30;;;;;;5018377;28;20041;-84
2022/01/15 01:58:29;;;;;;;0.82;0.40;;;7.50;54.20;;;;;;5014194;28;20060;-84
2022/01/15 02:00:55;;;;;;;2.20;0.52;;;7.50;54.40;;;;;;4989650;28;20054;-84
2022/01/15 02:03:21;;;;;;;3.08;0.50;;;7.50;54.50;;;;;;5030807;28;20037;-84
2022/01/15 02:05:47;;;;;;;1.27;0.30;;;7.50;54.90;;;;;;5015900;28;20030;-84
2022/01/15 02:08:13;;;;;;;0.85;0.40;;;7.60;55.00;;;;;;5014681;28;20068;-83
2022/01/15 02:10:40;;;;;;;1.15;0.30;;;7.50;55.00;;;;;;5015158;28;20144;-85
2022/01/15 02:13:08;;;;;;;0.80;0.45;;;7.50;55.00;;;;;;5012831;28;20116;-84
2022/01/15 02:15:36;;;;;;;1.30;0.50;;;7.50;54.90;;;;;;5029932;28;20030;-84
2022/01/15 02:18:02;;;;;;;1.55;0.45;;;7.50;54.70;;;;;;4995070;28;20036;-83
2022/01/15 02:25:57;;;;;;;1.27;0.40;;;7.50;54.40;;;;;;5008403;28;20033;-84
2022/01/15 02:28:25;;;;;;;1.70;0.70;;;7.50;54.40;;;;;;5017930;28;20040;-84
2022/01/15 02:31:03;;;;;;;3.15;0.30;;;7.50;54.60;;;;;;5017070;28;20041;-86
2022/01/15 02:33:30;;;;;;;2.50;0.35;;;7.50;54.70;;;;;;5013753;28;20044;-86
2022/01/15 02:35:57;;;;;;;0.60;0.30;;;7.50;54.70;;;;;;5012783;28;20037;-86
2022/01/15 02:38:24;;;;;;;1.08;0.17;;;7.50;54.60;;;;;;5015130;28;20033;-86
2022/01/15 02:40:50;;;;;;;0.52;0.15;;;7.50;54.50;;;;;;5015451;28;20034;-85
2022/01/15 02:43:20;;;;;;;0.40;0.20;;;7.50;54.50;;;;;;4998664;28;20038;-85
2022/01/15 02:45:55;;;;;;;0.90;0.28;;;7.50;54.60;;;;;;5011628;28;20074;-86
2022/01/15 02:48:26;;;;;;;0.60;0.30;;;7.50;54.70;;;;;;5014625;28;20060;-86
2022/01/15 02:50:53;;;;;;;1.45;0.50;;;7.50;54.70;;;;;;5030743;28;20037;-85
2022/01/15 02:53:20;;;;;;;2.03;0.60;;;7.50;54.70;;;;;;5017497;28;20458;-86
2022/01/15 02:55:52;;;;;;;0.43;0.30;;;7.40;54.60;;;;;;5020837;28;20040;-86
2022/01/15 02:58:21;;;;;;;0.63;0.43;;;7.40;54.80;;;;;;5000303;28;20026;-86
2022/01/15 03:00:49;;;;;;;1.50;0.52;;;7.40;54.90;;;;;;5020956;28;20030;-86
2022/01/15 03:03:15;;;;;;;2.50;0.40;;;7.40;55.10;;;;;;5017881;28;20038;-85
2022/01/15 03:05:41;;;;;;;3.42;0.88;;;7.40;55.20;;;;;;5018352;28;20045;-86
2022/01/15 03:08:07;;;;;;;1.90;0.55;;;7.40;55.40;;;;;;5018429;28;20504;-86
2022/01/15 03:10:33;;;;;;;0.32;0.32;;;7.40;55.50;;;;;;5032122;28;20034;-85
2022/01/15 03:13:01;;;;;;;1.95;0.77;;;7.40;55.60;;;;;;5021031;28;20040;-86
2022/01/15 03:15:28;;;;;;;0.65;0.50;;;7.40;55.60;;;;;;5016681;28;20065;-86
2022/01/15 03:17:54;;;;;;;1.83;0.60;;;7.40;55.70;;;;;;5015664;28;20060;-84
2022/01/15 03:20:21;;;;;;;2.17;0.80;;;7.30;55.60;;;;;;5019000;28;20516;-86
2022/01/15 03:22:47;;;;;;;5.57;0.80;;;7.30;55.70;;;;;;5004360;28;20034;-86
2022/01/15 03:25:14;;;;;;;1.13;0.77;;;7.30;55.70;;;;;;5032146;28;20064;-86
2022/01/15 03:27:40;;;;;;;1.08;0.77;;;7.30;55.80;;;;;;5020500;28;20033;-85
2022/01/15 03:30:09;;;;;;;0.95;0.93;;;7.30;55.70;;;;;;5019693;28;20034;-85
2022/01/15 03:32:36;;;;;;;1.00;0.57;;;7.30;55.80;;;;;;5025674;28;20038;-85
2022/01/15 03:35:02;;;;;;;0.77;0.77;;;7.30;55.70;;;;;;5018164;28;20033;-85
2022/01/15 03:37:28;;;;;;;1.35;0.70;;;7.30;55.80;;;;;;5016495;28;20120;-85
2022/01/15 03:39:54;;;;;;;1.63;1.00;;;7.30;56.10;;;;;;5016778;28;20113;-84
2022/01/15 03:42:19;;;;;;;2.75;0.93;;;7.30;56.10;;;;;;5017858;28;20042;-85
2022/01/15 03:44:48;;;;;;;1.27;0.68;;;7.30;56.30;;;;;;5015413;28;20042;-84
2022/01/15 03:47:16;;;;;;;1.40;0.93;;;7.40;56.30;;;;;;5003106;28;20050;-84
2022/01/15 03:49:42;;;;;;;0.75;0.70;;;7.30;56.20;;;;;;5004387;28;20559;-85
2022/01/15 03:52:10;;;;;;;1.02;0.77;;;7.30;56.10;;;;;;5018216;28;20037;-85
2022/01/15 03:54:36;;;;;;;1.02;0.65;;;7.30;56.20;;;;;;5014323;28;20570;-85
2022/01/15 03:57:04;;;;;;;0.73;0.60;;;7.30;56.20;;;;;;4999464;28;20026;-85
2022/01/15 03:59:30;;;;;;;1.70;0.68;;;7.30;56.50;;;;;;5030856;28;20262;-85
2022/01/15 04:01:57;;;;;;;1.00;0.60;;;7.30;56.50;;;;;;5016908;28;20515;-85
2022/01/15 04:04:23;;;;;;;0.63;0.52;;;7.30;56.40;;;;;;5017610;28;20071;-85
2022/01/15 04:06:49;;;;;;;1.20;0.88;;;7.40;56.50;;;;;;5016500;28;20094;-85
2022/01/15 04:09:15;;;;;;;0.60;0.60;;;7.30;56.50;;;;;;5015971;28;20551;-85
2022/01/15 04:11:41;;;;;;;1.75;0.75;;;7.30;56.50;;;;;;5015381;28;20042;-85
2022/01/15 04:14:07;;;;;;;1.42;0.70;;;7.30;56.50;;;;;;5015679;28;20033;-86
2022/01/15 04:16:33;;;;;;;1.42;0.65;;;7.30;56.70;;;;;;5014572;28;20072;-85
2022/01/15 04:19:00;;;;;;;1.42;0.73;;;7.30;56.70;;;;;;5005472;28;20051;-85
2022/01/15 04:21:27;;;;;;;0.85;0.85;;;7.30;56.70;;;;;;5015575;28;20088;-84
2022/01/15 04:23:53;;;;;;;1.80;0.70;;;7.30;56.70;;;;;;4999495;28;20041;-83
2022/01/15 04:26:24;;;;;;;2.33;0.70;;;7.30;56.80;;;;;;5016710;28;20091;-84
2022/01/15 04:28:51;;;;;;;2.05;0.70;;;7.30;56.80;;;;;;5017479;28;20037;-84
2022/01/15 04:31:17;;;;;;;2.42;0.80;;;7.30;56.90;;;;;;5016090;28;20091;-83
2022/01/15 04:33:43;;;;;;;1.65;0.70;;;7.30;57.00;;;;;;5016805;28;20049;-84
2022/01/15 04:36:09;;;;;;;1.35;0.85;;;7.30;57.20;;;;;;5018624;28;20037;-84
2022/01/15 04:38:38;;;;;;;0.98;0.70;;;7.30;57.30;;;;;;5014643;28;20459;-84
2022/01/15 04:41:08;;;;;;;0.90;0.63;;;7.30;57.10;;;;;;5017064;28;20026;-84
2022/01/15 04:43:34;;;;;;;0.90;0.70;;;7.30;57.10;;;;;;5014398;28;20029;-85
2022/01/15 04:46:00;;;;;;;1.13;0.80;;;7.30;57.00;;;;;;5014857;28;20125;-84
2022/01/15 04:48:27;;;;;;;2.65;0.82;;;7.30;57.00;;;;;;5015740;28;20045;-85
2022/01/15 04:50:53;;;;;;;1.40;0.60;;;7.30;57.00;;;;;;5014609;28;20128;-84
2022/01/15 04:53:20;;;;;;;1.65;0.93;;;7.30;56.90;;;;;;5017123;28;20034;-84
2022/01/15 04:55:45;;;;;;;1.58;0.70;;;7.30;57.00;;;;;;5002263;28;20033;-84
2022/01/15 04:58:12;;;;;;;1.58;1.10;;;7.20;57.00;;;;;;5015621;28;20048;-85
2022/01/15 05:00:38;;;;;;;0.90;0.70;;;7.30;57.00;;;;;;4991220;28;20108;-84
2022/01/15 05:03:04;;;;;;;1.83;0.95;;;7.30;56.70;;;;;;5015276;28;20030;-84
2022/01/15 05:05:31;;;;;;;0.75;0.60;;;7.30;56.70;;;;;;5012788;28;20102;-85
2022/01/15 05:07:57;;;;;;;1.08;0.57;;;7.30;56.80;;;;;;5015511;28;20496;-83
2022/01/15 05:10:27;;;;;;;1.33;0.85;;;7.30;56.80;;;;;;5015695;28;20500;-84
2022/01/15 05:12:56;;;;;;;0.68;0.50;;;7.30;56.60;;;;;;5016278;28;20041;-83
2022/01/15 05:15:23;;;;;;;0.98;0.40;;;7.30;56.40;;;;;;4986697;28;20057;-84
2022/01/15 05:17:49;;;;;;;0.95;0.50;;;7.30;56.40;;;;;;5014032;28;20128;-83
2022/01/15 05:20:19;;;;;;;1.38;0.70;;;7.30;56.50;;;;;;5014349;28;20032;-85
2022/01/15 05:22:47;;;;;;;0.52;0.52;;;7.30;56.70;;;;;;5017767;28;20118;-84
2022/01/15 05:25:14;;;;;;;0.88;0.50;;;7.30;56.70;;;;;;4997717;28;20818;-82
2022/01/15 05:27:45;;;;;;;0.47;0.40;;;7.30;56.60;;;;;;5013582;28;20044;-83
2022/01/15 05:30:12;;;;;;;1.38;0.43;;;7.30;56.50;;;;;;5001561;28;20441;-83
2022/01/15 05:32:39;;;;;;;0.30;0.30;;;7.30;56.30;;;;;;5016442;28;20034;-83
2022/01/15 05:35:05;;;;;;;1.02;0.68;;;7.30;56.20;;;;;;5015205;28;20048;-83
2022/01/15 05:37:31;;;;;;;0.63;0.50;;;7.30;56.20;;;;;;5032210;28;20033;-83
2022/01/15 05:39:57;;;;;;;0.68;0.60;;;7.30;56.20;;;;;;5027448;28;20079;-83
2022/01/15 05:42:23;;;;;;;0.60;0.60;;;7.20;56.00;;;;;;5015351;28;20030;-84
2022/01/15 05:44:49;;;;;;;0.73;0.55;;;7.20;56.00;;;;;;5013457;28;20422;-85
2022/01/15 05:47:15;;;;;;;1.38;0.50;;;7.20;55.90;;;;;;5015155;28;20102;-82
2022/01/15 05:49:41;;;;;;;0.82;0.82;;;7.20;55.90;;;;;;5015457;28;20484;-82
2022/01/15 05:52:07;;;;;;;0.52;0.52;;;7.20;55.90;;;;;;5012062;28;20077;-83
2022/01/15 05:54:33;;;;;;;0.63;0.45;;;7.20;55.90;;;;;;4997262;28;20121;-82
2022/01/15 05:56:59;;;;;;;1.92;0.60;;;7.20;56.00;;;;;;5014867;28;20111;-82
2022/01/15 05:59:25;;;;;;;0.50;0.50;;;7.20;56.00;;;;;;5012187;28;20063;-82
2022/01/15 06:01:51;;;;;;;1.65;0.40;;;7.10;56.00;;;;;;4998199;28;20504;-82
2022/01/15 06:04:17;;;;;;;0.88;0.40;;;7.20;56.10;;;;;;4995596;28;20542;-84
2022/01/15 06:06:43;;;;;;;0.60;0.60;;;7.20;56.10;;;;;;5010300;28;20030;-83
2022/01/15 06:09:09;;;;;;;0.50;0.50;;;7.20;56.30;;;;;;5009858;28;20044;-83
2022/01/15 06:11:35;;;;;;;1.58;0.50;;;7.20;56.20;;;;;;5009796;28;20034;-84
2022/01/15 06:14:01;;;;;;;1.40;0.60;;;7.20;56.20;;;;;;5011033;28;20364;-84
2022/01/15 06:16:27;;;;;;;2.42;0.80;;;7.10;56.10;;;;;;5011221;28;20044;-84
2022/01/15 06:18:53;;;;;;;0.60;0.60;;;7.20;56.40;;;;;;5012411;28;20034;-83
2022/01/15 06:21:19;;;;;;;1.35;0.50;;;7.10;56.30;;;;;;5011968;28;20040;-84
2022/01/15 06:23:45;;;;;;;0.40;0.40;;;7.10;56.30;;;;;;4998065;28;20125;-85
2022/01/15 06:26:11;;;;;;;0.60;0.40;;;7.10;56.30;;;;;;5000680;28;20044;-85
2022/01/15 06:28:37;;;;;;;0.85;0.40;;;7.10;56.30;;;;;;5015112;28;20451;-82
2022/01/15 06:31:03;;;;;;;0.65;0.50;;;7.10;56.50;;;;;;5016466;28;20071;-83
2022/01/15 06:33:29;;;;;;;0.50;0.50;;;7.10;56.60;;;;;;5015244;28;20029;-83
2022/01/15 06:35:55;;;;;;;0.40;0.38;;;7.20;57.00;;;;;;4997106;28;20038;-82
2022/01/15 06:38:21;;;;;;;0.38;0.30;;;7.20;57.00;;;;;;5015773;28;20069;-83
2022/01/15 06:40:47;;;;;;;0.70;0.60;;;7.20;57.10;;;;;;5021253;28;20034;-82
2022/01/15 06:43:13;;;;;;;0.93;0.45;;;7.20;57.40;;;;;;5022478;28;20036;-83
2022/01/15 06:45:39;;;;;;;2.05;0.50;;;7.20;57.30;;;;;;5017399;28;20083;-82
2022/01/15 06:48:05;;;;;;;0.40;0.40;;;7.20;57.30;;;;;;5017222;28;20471;-85
2022/01/15 06:50:31;;;;;;;0.93;0.55;;;7.30;57.30;;;;;;5015837;28;20039;-85
2022/01/15 06:52:57;;;;;;;0.60;0.40;;;7.20;57.20;;;;;;5017914;28;20041;-85
2022/01/15 06:55:23;;;;;;;1.00;0.50;;;7.20;57.20;;;;;;5008326;28;20095;-85
2022/01/15 06:57:50;;;;;;;0.40;0.40;;;7.20;57.00;;;;;;5018714;28;20045;-84
2022/01/15 07:00:17;;;;;;;1.08;0.38;;;7.20;57.20;;;;;;5015154;28;20124;-84
2022/01/15 07:02:43;;;;;;;1.92;0.55;;;7.30;57.30;;;;;;5015964;28;20030;-83
2022/01/15 07:05:09;;;;;;;1.73;0.52;;;7.30;57.50;;;;;;5017543;28;20116;-83
2022/01/15 07:07:40;;;;;;;0.50;0.50;;;7.30;57.60;;;;;;5015907;28;20029;-83
2022/01/15 07:10:08;;;;;;;1.10;0.60;;;7.30;57.40;;;;;;5017811;28;20087;-84
2022/01/15 07:12:34;;;;;;;1.58;0.50;;;7.30;57.30;;;;;;5017426;28;20034;-84
2022/01/15 07:14:59;;;;;;;1.58;0.90;;;7.30;57.40;;;;;;5000270;28;20037;-83
2022/01/15 07:17:25;;;;;;;1.27;0.40;;;7.30;57.60;;;;;;5018920;28;20029;-83
2022/01/15 07:19:51;;;;;;;1.88;0.43;;;7.30;57.70;;;;;;5017522;28;20037;-83
2022/01/15 07:22:17;;;;;;;0.38;0.38;;;7.40;57.50;;;;;;5000078;28;20092;-84
2022/01/15 07:24:43;;;;;;;0.98;0.57;;;7.30;57.40;;;;;;5016067;28;20033;-84
2022/01/15 07:27:09;;;;;;;0.52;0.45;;;7.40;57.30;;;;;;5016328;28;20040;-85
2022/01/15 07:29:37;;;;;;;0.52;0.40;;;7.40;57.20;;;;;;5014385;28;20070;-83
2022/01/15 07:32:04;;;;;;;1.30;0.50;;;7.30;57.30;;;;;;5012957;28;20040;-83
2022/01/15 07:34:30;;;;;;;0.47;0.38;;;7.40;57.30;;;;;;5012805;28;20103;-82
2022/01/15 07:36:57;;;;;;;1.92;0.60;;;7.40;57.80;;;;;;5017720;28;20563;-80
2022/01/15 07:39:24;;;;;;;0.63;0.40;;;7.40;57.00;;;;;;5014662;28;20129;-79
2022/01/15 07:41:50;;;;;;;1.08;0.32;;;7.40;57.20;;;;;;5011983;28;20044;-79
2022/01/15 07:44:17;;;;;;;0.88;0.60;;;7.40;57.70;;;;;;5029702;28;20405;-79
2022/01/15 07:46:43;;;;;;;1.35;0.40;;;7.50;58.60;;;;;;5013969;28;20061;-79
2022/01/15 07:49:10;;;;;;;1.65;0.40;;;7.50;59.40;;;;;;5014402;28;20038;-78
2022/01/15 07:51:36;;;;;;;0.52;0.47;;;7.60;59.90;;;;;;5013063;28;20518;-78
2022/01/15 07:54:02;;;;;;;4.53;0.40;;;7.60;60.40;;;;;;5013245;28;20038;-79
2022/01/15 07:56:28;;;;;;;2.22;0.50;;;7.60;61.10;;;;;;5014583;28;20041;-80
2022/01/15 07:58:54;;;;;;;1.05;0.40;;;7.70;61.20;;;;;;5013345;28;20029;-81
2022/01/15 08:01:20;;;;;;;3.20;0.75;;;7.70;61.60;;;;;;5014749;28;20412;-81
2022/01/15 08:03:48;;;;;;;2.08;0.60;;;7.80;62.00;;;;;;5037197;28;20040;-81
2022/01/15 08:06:15;;;;;;;2.67;0.40;;;7.80;62.20;;;;;;5013919;28;20033;-81
2022/01/15 08:08:41;;;;;;;1.95;0.65;;;7.80;62.40;;;;;;5016863;28;20475;-80
2022/01/15 08:11:07;;;;;;;2.33;0.60;;;7.90;63.00;;;;;;5014568;28;20037;-80
2022/01/15 08:13:34;;;;;;;1.63;0.75;;;7.90;63.20;;;;;;5018547;28;20034;-81
2022/01/15 08:16:04;;;;;;;3.17;0.93;;;7.90;63.70;;;;;;5015620;28;20459;-85
2022/01/15 08:18:31;;;;;;;3.75;0.82;;;8.00;64.00;;;;;;5015843;28;20029;-90
2022/01/15 08:20:58;;;;;;;1.70;0.60;;;8.00;66.30;;;;;;5015838;28;20045;-84
2022/01/15 08:23:24;;;;;;;3.55;0.93;;;8.10;70.00;;;;;;5016220;28;20061;-83
2022/01/15 08:25:50;;;;;;;2.42;0.88;;;8.20;69.10;;;;;;5015505;28;20108;-86
2022/01/15 08:28:17;;;;;;;3.28;0.60;;;8.20;67.30;;;;;;5021515;28;20095;-82
2022/01/15 08:30:44;;;;;;;1.27;0.43;;;8.20;66.20;;;;;;5011558;28;20531;-84
2022/01/15 08:33:10;;;;;;;2.17;0.60;;;8.20;65.60;;;;;;5010024;28;20034;-84
2022/01/15 08:35:36;;;;;;;1.63;0.70;;;8.30;65.30;;;;;;5005911;28;20421;-82
2022/01/15 08:38:03;;;;;;;1.55;0.60;;;8.30;65.00;;;;;;5006308;28;20046;-84
2022/01/15 08:40:30;;;;;;;3.60;0.77;;;8.30;64.80;;;;;;5009411;28;20119;-83
2022/01/15 08:42:56;;;;;;;3.95;0.80;;;8.40;64.70;;;;;;5012140;28;20034;-83
2022/01/15 08:45:22;;;;;;;2.70;0.68;;;8.40;64.90;;;;;;5027272;28;20053;-82
2022/01/15 08:47:48;;;;;;;2.78;0.75;;;8.40;64.90;;;;;;5020211;28;20116;-82
2022/01/15 08:50:15;;;;;;;1.10;0.50;;;8.40;64.90;;;;;;5013061;28;20037;-82
2022/01/15 08:52:42;;;;;;;2.05;0.60;;;8.40;64.80;;;;;;5008818;28;20033;-83
2022/01/15 08:55:09;;;;;;;1.33;0.80;;;8.50;65.00;;;;;;5015040;28;20045;-85
2022/01/15 08:57:35;;;;;;;2.97;0.85;;;8.50;65.10;;;;;;5008749;28;20102;-84
2022/01/15 09:00:04;;;;;;;2.00;0.90;;;8.50;65.30;;;;;;5011237;28;20379;-83
2022/01/15 09:02:30;;;;;;;2.67;0.93;;;8.50;65.40;;;;;;5012538;28;20120;-82
2022/01/15 09:04:56;;;;;;;0.82;0.60;;;8.60;65.70;;;;;;5015155;28;20448;-81
2022/01/15 09:07:22;;;;;;;2.20;1.08;;;8.60;65.80;;;;;;5010122;28;20038;-81
2022/01/15 09:09:48;;;;;;;3.83;1.40;;;8.60;65.60;;;;;;5015749;28;20033;-82
2022/01/15 09:12:15;;;;;;;4.10;1.15;;;8.70;65.60;;;;;;5016730;28;20037;-81
2022/01/15 09:14:41;;;;;;;1.88;0.77;;;8.70;65.80;;;;;;5015590;28;20064;-81
2022/01/15 09:17:07;;;;;;;0.88;0.57;;;8.70;65.80;;;;;;5013452;28;20044;-82
2022/01/15 09:19:33;;;;;;;1.35;0.75;;;8.70;65.80;;;;;;5012979;28;20041;-81
2022/01/15 09:22:00;;;;;;;2.33;0.60;;;8.70;65.80;;;;;;5025749;28;20145;-81
2022/01/15 09:24:26;;;;;;;3.30;1.17;;;8.80;66.30;;;;;;5013763;28;20112;-81
2022/01/15 09:32:04;;;;;;;3.60;0.70;;;8.80;66.90;;;;;;5014245;28;20065;-82
2022/01/15 09:34:32;;;;;;;1.83;0.85;;;8.80;67.10;;;;;;5015632;28;20283;-81
2022/01/15 09:36:58;;;;;;;2.15;0.77;;;8.90;67.30;;;;;;5015015;28;20065;-81
2022/01/15 09:39:24;;;;;;;2.70;0.75;;;8.80;66.90;;;;;;5014201;28;20052;-81
2022/01/15 09:41:54;;;;;;;2.67;0.82;;;8.90;66.90;;;;;;5003283;28;20033;-81
2022/01/15 09:44:24;;;;;;;2.55;0.65;;;8.90;66.70;;;;;;5011261;28;20568;-83
2022/01/15 09:46:51;;;;;;;3.47;0.70;;;8.90;66.60;;;;;;5003949;28;20159;-82
2022/01/15 09:49:20;;;;;;;4.90;1.30;;;8.90;66.70;;;;;;5014701;28;20029;-82
2022/01/15 09:51:47;;;;;;;1.13;0.93;;;9.00;66.90;;;;;;5030206;28;20123;-82
2022/01/15 09:54:15;;;;;;;0.93;0.70;;;8.90;66.70;;;;;;5016471;28;20072;-81
2022/01/15 09:56:43;;;;;;;2.20;0.82;;;9.00;66.50;;;;;;5029050;28;20037;-83
2022/01/15 09:59:10;;;;;;;2.40;0.80;;;9.00;66.10;;;;;;5002770;28;20041;-82
2022/01/15 10:01:36;;;;;;;2.90;0.90;;;9.00;66.10;;;;;;4985301;28;20041;-83
2022/01/15 10:04:02;;;;;;;2.95;0.60;;;9.00;65.90;;;;;;5013051;28;20029;-83
2022/01/15 10:06:28;;;;;;;3.13;0.85;;;9.00;65.80;;;;;;5012021;28;20025;-83
2022/01/15 10:09:06;;;;;;;1.02;0.70;;;9.00;65.80;;;;;;5012976;28;20049;-83
2022/01/15 10:11:43;;;;;;;1.85;0.95;;;9.00;65.90;;;;;;5013332;28;20392;-83
2022/01/15 10:14:26;;;;;;;1.00;0.82;;;9.00;65.80;;;;;;5012215;28;20412;-84
2022/01/15 10:16:52;;;;;;;1.40;1.00;;;9.00;65.60;;;;;;5018465;28;20575;-83
2022/01/15 10:19:34;;;;;;;1.67;1.02;;;9.00;65.50;;;;;;5010395;28;20072;-84
2022/01/15 10:22:18;;;;;;;3.00;0.90;;;9.10;65.80;;;;;;5008044;28;20456;-84
2022/01/15 10:25:01;;;;;;;1.35;0.80;;;9.10;65.60;;;;;;5015198;28;20091;-84
2022/01/15 10:27:30;;;;;;;2.08;0.80;;;9.00;65.50;;;;;;5011451;28;20033;-85
2022/01/15 10:30:01;;;;;;;2.17;1.10;;;9.10;65.60;;;;;;5013136;28;20026;-83
2022/01/15 10:32:29;;;;;;;3.35;1.20;;;9.10;65.60;;;;;;5028464;28;20038;-82
2022/01/15 10:34:56;;;;;;;1.63;1.02;;;9.10;65.60;;;;;;4997777;28;20045;-84
2022/01/15 10:37:25;;;;;;;1.77;0.77;;;9.10;65.60;;;;;;5014445;28;20547;-83
2022/01/15 10:39:59;;;;;;;1.40;0.85;;;9.10;65.60;;;;;;5001518;28;20065;-84
2022/01/15 10:42:25;;;;;;;1.20;0.75;;;9.10;65.60;;;;;;5011145;28;20034;-83
2022/01/15 10:44:56;;;;;;;1.35;0.88;;;9.20;65.40;;;;;;5025941;28;20042;-84
2022/01/15 10:47:27;;;;;;;3.00;0.77;;;9.10;65.30;;;;;;5012167;28;20073;-84
2022/01/15 10:49:58;;;;;;;0.82;0.75;;;9.20;65.60;;;;;;5015513;28;20064;-83
2022/01/15 10:52:26;;;;;;;4.13;1.00;;;9.10;65.50;;;;;;4991492;28;20049;-82
2022/01/15 10:55:06;;;;;;;1.73;0.80;;;9.20;65.40;;;;;;5020422;28;20060;-83
2022/01/15 10:57:38;;;;;;;2.40;0.90;;;9.20;65.50;;;;;;5034677;28;20057;-84
2022/01/15 11:00:12;;;;;;;1.35;0.80;;;9.20;65.50;;;;;;5012432;28;20597;-86
2022/01/15 11:02:41;;;;;;;0.90;0.80;;;9.20;65.50;;;;;;5010303;28;20080;-88
2022/01/15 11:05:22;;;;;;;1.50;0.90;;;9.20;65.20;;;;;;4995421;28;20420;-85
2022/01/15 11:07:48;;;;;;;1.58;0.88;;;9.20;65.10;;;;;;5025064;28;20045;-83
2022/01/15 11:10:14;;;;;;;1.60;0.80;;;9.20;65.10;;;;;;5002146;28;20039;-83
2022/01/15 11:12:40;;;;;;;1.92;1.00;;;9.20;65.10;;;;;;4996918;28;20400;-87
2022/01/15 11:15:07;;;;;;;2.83;1.00;;;9.20;65.10;;;;;;5003725;28;20429;-85
2022/01/15 11:17:34;;;;;;;2.17;0.88;;;9.20;65.10;;;;;;5014601;28;20129;-85
2022/01/15 11:20:03;;;;;;;2.38;0.80;;;9.20;64.90;;;;;;5015664;28;20029;-84
2022/01/15 11:22:32;;;;;;;0.98;0.70;;;9.20;64.90;;;;;;5015704;28;20042;-85
2022/01/15 11:24:58;;;;;;;1.88;0.95;;;9.20;65.10;;;;;;5017175;28;20034;-86
2022/01/15 11:27:29;;;;;;;1.00;0.90;;;9.20;65.00;;;;;;5016622;28;20029;-86
2022/01/15 11:29:58;;;;;;;0.95;0.73;;;9.20;64.90;;;;;;4989494;28;20029;-87
2022/01/15 11:32:28;;;;;;;1.45;0.98;;;9.20;64.90;;;;;;5020467;28;20041;-85
2022/01/15 11:35:06;;;;;;;3.80;0.95;;;9.20;64.90;;;;;;5024088;28;20042;-87
2022/01/15 11:37:46;;;;;;;1.88;1.20;;;9.20;64.80;;;;;;5019464;28;20117;-88
2022/01/15 11:40:35;;;;;;;1.13;0.90;;;9.30;64.70;;;;;;4993018;28;20037;-86
2022/01/15 11:43:33;;;;;;;1.33;0.80;;;9.30;64.70;;;;;;5021319;28;20030;-84
2022/01/15 11:46:05;;;;;;;2.08;0.82;;;9.20;64.90;;;;;;5015389;28;20048;-85
2022/01/15 11:48:33;;;;;;;0.90;0.80;;;9.30;65.00;;;;;;5020595;28;20084;-81
2022/01/15 11:51:14;;;;;;;2.83;1.00;;;9.30;64.90;;;;;;5014508;28;20033;-88
2022/01/15 11:53:51;;;;;;;2.10;0.82;;;9.30;64.90;;;;;;5024054;28;20038;-83
2022/01/15 11:56:20;;;;;;;2.25;0.98;;;9.30;64.90;;;;;;5032133;28;20103;-86
2022/01/15 11:58:46;;;;;;;2.63;1.10;;;9.30;65.00;;;;;;5030204;28;20041;-88
2022/01/15 12:01:42;;;;;;;1.13;0.90;;;9.30;65.10;;;;;;5008629;28;20049;-86
2022/01/15 12:04:35;;;;;;;1.17;0.98;;;9.30;65.10;;;;;;5017872;28;20107;-85
2022/01/15 12:07:07;;;;;;;2.05;1.00;;;9.30;65.10;;;;;;5017480;28;20044;-87
2022/01/15 12:09:51;;;;;;;2.55;1.20;;;9.30;65.20;;;;;;5016889;28;20527;-84
2022/01/15 12:12:21;;;;;;;1.83;0.80;;;9.30;65.20;;;;;;5002473;28;20417;-86
2022/01/15 12:14:57;;;;;;;0.90;0.80;;;9.30;65.40;;;;;;5018006;28;20036;-89
2022/01/15 12:17:43;;;;;;;1.05;0.80;;;9.30;65.40;;;;;;5018891;28;20033;-86
2022/01/15 12:20:18;;;;;;;1.50;0.80;;;9.30;65.50;;;;;;5015286;28;20076;-90
2022/01/15 12:22:45;;;;;;;1.63;1.00;;;9.30;65.60;;;;;;5018822;28;20523;-86
2022/01/15 12:25:17;;;;;;;2.60;1.42;;;9.30;65.70;;;;;;5018871;28;20029;-88
2022/01/15 12:27:55;;;;;;;1.20;1.10;;;9.30;65.80;;;;;;5018295;28;21799;-86
2022/01/15 12:30:29;;;;;;;2.30;1.10;;;9.30;65.80;;;;;;5017790;28;20068;-87
2022/01/15 12:32:57;;;;;;;2.40;1.00;;;9.40;66.00;;;;;;4997797;28;20037;-88
2022/01/15 12:35:25;;;;;;;1.50;0.90;;;9.30;65.80;;;;;;5015415;28;20502;-86
2022/01/15 12:37:59;;;;;;;1.38;0.80;;;9.30;65.80;;;;;;5018853;28;20044;-87
2022/01/15 12:40:41;;;;;;;1.23;0.90;;;9.30;66.20;;;;;;5032461;28;20044;-87
2022/01/15 12:43:11;;;;;;;1.27;0.90;;;9.40;66.20;;;;;;5031285;28;20036;-86
2022/01/15 12:45:39;;;;;;;1.63;1.00;;;9.30;66.20;;;;;;5015276;28;20445;-85
2022/01/15 12:48:09;;;;;;;1.35;0.75;;;9.30;66.00;;;;;;5018853;28;20321;-86
2022/01/15 12:50:53;;;;;;;1.65;0.93;;;9.30;66.10;;;;;;5016097;28;20133;-88
2022/01/15 12:53:25;;;;;;;1.55;0.98;;;9.40;66.10;;;;;;5016154;28;20088;-83
2022/01/15 12:55:51;;;;;;;1.73;1.10;;;9.40;66.00;;;;;;5016269;28;20110;-89
2022/01/15 12:58:22;;;;;;;1.75;0.90;;;9.40;66.20;;;;;;5013906;28;20045;-86
2022/01/15 13:00:49;;;;;;;1.20;1.10;;;9.40;66.00;;;;;;5027472;28;20523;-86
2022/01/15 13:03:20;;;;;;;1.00;0.90;;;9.30;66.50;;;;;;5031661;28;20046;-88
2022/01/15 13:05:57;;;;;;;1.70;1.27;;;9.40;66.00;;;;;;5021351;28;20092;-88
2022/01/15 13:08:32;;;;;;;2.45;1.10;;;9.40;66.10;;;;;;5009449;28;20029;-83
2022/01/15 13:13:36;;;;;;;2.05;1.23;;;9.40;66.50;;;;;;5015773;28;20046;-83
2022/01/15 13:16:13;;;;;;;0.82;0.77;;;9.40;66.60;;;;;;5013072;28;20041;-83
2022/01/15 13:18:44;;;;;;;1.80;0.82;;;9.30;66.50;;;;;;5014317;28;20057;-81
2022/01/15 13:21:14;;;;;;;2.00;1.00;;;9.40;66.80;;;;;;5029731;28;20510;-81
2022/01/15 13:23:43;;;;;;;1.42;0.93;;;9.40;66.70;;;;;;4996602;28;20030;-84
2022/01/15 13:26:12;;;;;;;1.08;0.70;;;9.30;66.60;;;;;;5013452;28;20036;-83
2022/01/15 13:28:41;;;;;;;3.33;1.05;;;9.40;66.40;;;;;;5003573;28;20030;-83
2022/01/15 13:31:08;;;;;;;3.83;1.00;;;9.30;66.20;;;;;;5014293;28;20058;-82
2022/01/15 13:33:41;;;;;;;2.00;1.02;;;9.30;66.00;;;;;;5009275;28;20115;-83
2022/01/15 13:36:13;;;;;;;1.88;1.00;;;9.40;66.00;;;;;;4990146;28;20586;-93
2022/01/15 13:38:41;;;;;;;1.67;0.90;;;9.30;66.00;;;;;;5005718;28;20034;-91